ěÝzenÝ letovÚho provozu ╚eskÚ republiky
Letiste: LKKB Aktualizace: 27.11.2021 23:29:27  UTC
 METAR LKKB 27.11. 23:30 ...
METAR LKKB 272330Z 18004KT 9999 BKN030 01/M01 Q0996 RMK BLU=
 TAF LKKB 27.11. 17:00 ...
TAF LKKB 271700Z 2718/2818 17005KT 9999 OVC030      TEMPO 2718/2722 BKN020      BECMG 2722/2800 7000 BKN015      PROB30 TEMPO 2800/2806 3000 SN BR BKN010      BECMG 2804/2806 29005KT BKN007 OVC012      PROB40 TEMPO 2806/2818 5000 SNRA BR BKN006      BECMG 2814/2816 9999 BKN022=